Time;durP1;ratioP1;P1;durP2;ratioP2;P2;SDS_P1;SDS_P2;PMS_P1;PMS_P2;Temp;Humidity;BMP_temperature;BMP_pressure;BME280_temperature;BME280_humidity;BME280_pressure;Samples;Min_cycle;Max_cycle;Signal;HPM_P1;HPM_P2
2022/11/25 00:01:33;;;;;;;11.15;3.00;;;;;;;7.60;86.32;100922.69;4991519;28;20118;-71
2022/11/25 00:04:01;;;;;;;14.35;2.67;;;;;;;7.63;86.35;100921.75;4989218;28;20050;-71
2022/11/25 00:06:34;;;;;;;14.75;2.47;;;;;;;7.61;86.46;100913.94;4990629;28;20043;-71
2022/11/25 00:09:09;;;;;;;11.90;2.30;;;;;;;7.61;86.94;100910.41;5003239;28;20054;-71
2022/11/25 00:11:40;;;;;;;13.48;2.70;;;;;;;7.61;87.18;100907.78;5000938;28;20043;-71
2022/11/25 00:14:12;;;;;;;19.08;2.70;;;;;;;7.62;87.46;100912.16;4996876;28;20051;-70
2022/11/25 00:16:39;;;;;;;15.45;2.70;;;;;;;7.62;87.29;100906.91;4992117;28;20045;-70
2022/11/25 00:19:16;;;;;;;15.73;2.78;;;;;;;7.62;87.58;100901.66;4976330;28;20063;-70
2022/11/25 00:21:44;;;;;;;15.65;3.42;;;;;;;7.61;87.51;100905.16;4990067;28;20066;-71
2022/11/25 00:24:14;;;;;;;11.90;2.50;;;;;;;7.62;87.59;100899.03;4989244;28;20042;-71
2022/11/25 00:26:42;;;;;;;12.93;2.72;;;;;;;7.61;87.64;100892.94;4990068;28;20042;-71
2022/11/25 00:29:11;;;;;;;15.32;2.50;;;;;;;7.65;87.63;100896.38;4989956;28;20046;-71
2022/11/25 00:31:40;;;;;;;15.00;2.75;;;;;;;7.66;87.44;100879.72;4990761;28;20528;-71
2022/11/25 00:34:12;;;;;;;12.45;2.72;;;;;;;7.67;87.70;100888.44;5005620;28;20501;-72
2022/11/25 00:36:40;;;;;;;9.23;2.00;;;;;;;7.65;87.99;100878.00;5005133;28;20109;-72
2022/11/25 00:39:18;;;;;;;12.02;3.00;;;;;;;7.63;88.02;100876.31;4990169;28;20051;-72
2022/11/25 00:44:34;;;;;;;15.65;3.85;;;;;;;7.59;88.34;100876.34;4989423;28;20781;-71
2022/11/25 00:47:24;;;;;;;13.77;2.00;;;;;;;7.59;88.63;100870.22;4991581;28;20051;-71
2022/11/25 00:49:53;;;;;;;14.75;2.35;;;;;;;7.58;88.80;100874.59;4994602;28;20423;-71
2022/11/25 00:52:25;;;;;;;14.57;2.35;;;;;;;7.58;89.05;100871.97;4984705;28;20055;-71
2022/11/25 00:54:53;;;;;;;11.40;2.80;;;;;;;7.58;88.99;100874.59;4980592;28;20050;-71
2022/11/25 00:57:22;;;;;;;14.90;2.22;;;;;;;7.58;89.18;100879.00;4989738;28;20541;-71
2022/11/25 00:59:50;;;;;;;14.95;2.30;;;;;;;7.58;89.28;100860.63;4990690;28;20122;-71
2022/11/25 01:02:21;;;;;;;16.33;2.70;;;;;;;7.59;89.47;100872.84;4992356;28;20047;-71
2022/11/25 01:04:49;;;;;;;11.52;2.30;;;;;;;7.60;89.57;100869.31;5001117;28;20890;-71
2022/11/25 01:07:17;;;;;;;11.50;1.98;;;;;;;7.58;89.68;100865.88;4987589;28;20043;-71
2022/11/25 01:09:44;;;;;;;11.98;2.00;;;;;;;7.60;89.53;100869.31;4990093;28;20047;-71
2022/11/25 01:12:11;;;;;;;22.90;3.38;;;;;;;7.62;89.76;100875.41;4988375;28;20151;-71
2022/11/25 01:14:39;;;;;;;7.97;2.42;;;;;;;7.64;89.82;100875.38;4990415;28;20057;-71
2022/11/25 01:17:06;;;;;;;12.02;2.67;;;;;;;7.64;89.89;100870.13;4987355;28;20876;-72
2022/11/25 01:19:38;;;;;;;11.35;2.53;;;;;;;7.66;89.71;100873.59;4989542;28;20074;-72
2022/11/25 01:22:07;;;;;;;13.85;2.55;;;;;;;7.67;89.78;100872.72;4989020;28;20042;-72
2022/11/25 01:24:34;;;;;;;12.27;2.55;;;;;;;7.68;90.02;100867.44;4989082;28;20046;-72
2022/11/25 01:27:02;;;;;;;14.30;2.42;;;;;;;7.70;89.87;100867.41;4991360;28;20508;-72
2022/11/25 01:29:30;;;;;;;16.55;3.38;;;;;;;7.71;90.06;100870.00;4990537;28;20039;-72
2022/11/25 01:31:57;;;;;;;9.63;2.22;;;;;;;7.72;89.90;100873.50;4988342;28;20046;-71
2022/11/25 01:34:26;;;;;;;13.32;2.72;;;;;;;7.75;89.81;100879.56;5002578;28;20770;-71
2022/11/25 01:36:56;;;;;;;10.90;2.25;;;;;;;7.76;89.82;100886.56;4988986;28;20398;-71
2022/11/25 01:39:25;;;;;;;14.40;2.25;;;;;;;7.78;89.89;100879.50;4986794;28;20047;-71
2022/11/25 01:42:00;;;;;;;16.38;2.72;;;;;;;7.82;89.76;100882.94;4990651;28;20038;-71
2022/11/25 01:44:31;;;;;;;12.38;2.50;;;;;;;7.84;89.76;100880.28;4985654;28;20051;-71
2022/11/25 01:47:08;;;;;;;12.73;2.53;;;;;;;7.87;89.80;100885.50;4993282;28;20034;-71
2022/11/25 01:49:45;;;;;;;13.20;2.15;;;;;;;7.88;89.86;100874.94;5023909;28;20053;-72
2022/11/25 01:52:30;;;;;;;18.30;2.53;;;;;;;7.92;89.68;100887.13;4999672;28;20516;-72
2022/11/25 01:55:14;;;;;;;14.73;2.63;;;;;;;7.95;89.70;100883.59;4992642;28;20778;-71
2022/11/25 01:58:10;;;;;;;16.50;2.78;;;;;;;7.99;89.56;100892.25;4991593;28;20453;-72
2022/11/25 02:00:38;;;;;;;15.45;2.40;;;;;;;7.98;89.68;100880.03;4998825;28;20097;-72
2022/11/25 02:03:07;;;;;;;13.35;3.50;;;;;;;8.03;89.58;100881.66;4991935;28;20054;-72
2022/11/25 02:05:49;;;;;;;11.95;2.05;;;;;;;8.06;89.44;100886.00;4994114;28;20035;-72
2022/11/25 02:08:19;;;;;;;14.00;2.20;;;;;;;8.07;89.43;100877.22;4991157;28;20106;-72
2022/11/25 02:10:47;;;;;;;25.73;8.38;;;;;;;8.08;89.45;100885.09;4994803;28;20047;-72
2022/11/25 02:13:23;;;;;;;15.90;3.80;;;;;;;8.12;89.33;100880.63;4992216;28;20082;-71
2022/11/25 02:15:50;;;;;;;13.15;2.42;;;;;;;8.13;89.55;100881.50;4985652;28;20046;-72
2022/11/25 02:18:18;;;;;;;18.17;4.35;;;;;;;8.14;89.18;100888.47;4993512;28;20519;-72
2022/11/25 02:20:45;;;;;;;10.82;2.25;;;;;;;8.15;89.26;100888.44;4990123;28;20049;-72
2022/11/25 02:23:47;;;;;;;14.02;4.20;;;;;;;8.21;89.07;100890.06;4987573;28;20109;-72
2022/11/25 02:26:14;;;;;;;12.23;2.80;;;;;;;8.21;89.26;100895.34;4987321;28;20053;-72
2022/11/25 02:28:42;;;;;;;15.90;2.63;;;;;;;8.23;88.95;100891.81;4990396;28;20122;-72
2022/11/25 02:31:09;;;;;;;12.77;2.05;;;;;;;8.24;89.01;100906.63;4992942;28;20047;-71
2022/11/25 02:33:36;;;;;;;12.57;2.20;;;;;;;8.28;88.86;100903.97;4990443;28;20050;-71
2022/11/25 02:36:13;;;;;;;9.90;2.20;;;;;;;8.31;88.88;100903.91;4991464;28;20523;-71
2022/11/25 02:38:47;;;;;;;8.77;2.00;;;;;;;8.33;88.92;100905.59;4989539;28;20042;-71
2022/11/25 02:41:32;;;;;;;10.07;2.13;;;;;;;8.35;88.76;100909.06;4991349;28;20494;-71
2022/11/25 02:44:03;;;;;;;16.42;2.65;;;;;;;8.36;88.96;100902.91;4990994;28;20047;-71
2022/11/25 02:46:32;;;;;;;11.75;2.05;;;;;;;8.39;89.01;100909.88;4988853;28;20042;-71
2022/11/25 02:49:02;;;;;;;12.98;2.00;;;;;;;8.41;88.98;100913.34;4991556;28;20130;-71
2022/11/25 02:51:43;;;;;;;13.07;1.90;;;;;;;8.39;88.84;100905.47;4991130;28;20055;-71
2022/11/25 02:54:14;;;;;;;11.60;2.30;;;;;;;8.44;88.73;100901.91;4990572;28;20043;-71
2022/11/25 02:56:42;;;;;;;16.23;2.55;;;;;;;8.43;88.94;100911.56;4990156;28;20043;-71
2022/11/25 02:59:10;;;;;;;9.65;2.30;;;;;;;8.42;89.08;100911.56;4990210;28;20058;-71
2022/11/25 03:01:38;;;;;;;13.65;2.15;;;;;;;8.43;88.96;100921.19;4991066;28;20047;-71
2022/11/25 03:04:08;;;;;;;14.48;2.28;;;;;;;8.43;89.03;100934.31;4993416;28;20046;-72
2022/11/25 03:06:35;;;;;;;13.27;2.30;;;;;;;8.40;89.21;100928.22;4998398;28;20131;-72
2022/11/25 03:09:04;;;;;;;14.18;2.28;;;;;;;8.42;89.06;100935.22;4990849;28;20155;-72
2022/11/25 03:14:38;;;;;;;12.32;2.90;;;;;;;8.39;89.45;100939.63;4968022;28;20568;-72
2022/11/25 03:17:06;;;;;;;12.13;2.30;;;;;;;8.38;89.41;100943.16;4967924;28;20603;-72
2022/11/25 03:19:33;;;;;;;13.88;2.53;;;;;;;8.33;89.43;100928.41;4981477;28;20529;-71
2022/11/25 03:22:01;;;;;;;11.20;2.78;;;;;;;8.30;89.63;100937.19;4990786;28;20122;-69
2022/11/25 03:24:28;;;;;;;13.40;3.17;;;;;;;8.27;90.03;100936.38;4990404;28;20150;-70
2022/11/25 03:26:55;;;;;;;17.42;3.10;;;;;;;8.25;90.11;100946.91;4990201;28;20068;-70
2022/11/25 03:29:22;;;;;;;14.60;2.80;;;;;;;8.23;90.52;100941.72;4989628;28;20043;-70
2022/11/25 03:31:50;;;;;;;15.60;2.80;;;;;;;8.19;90.85;100950.53;4990043;28;20047;-69
2022/11/25 03:34:17;;;;;;;9.80;2.22;;;;;;;8.17;91.04;100948.81;4985256;28;20624;-68
2022/11/25 03:36:44;;;;;;;22.33;3.83;;;;;;;8.15;91.04;100951.47;4989732;28;20114;-68
2022/11/25 03:39:11;;;;;;;12.90;2.88;;;;;;;8.12;91.47;100948.03;4989510;28;20051;-68
2022/11/25 03:41:38;;;;;;;11.50;2.17;;;;;;;8.09;91.64;100931.44;4990778;28;20139;-68
2022/11/25 03:44:06;;;;;;;10.77;2.80;;;;;;;8.09;91.87;100918.31;4985212;28;20058;-69
2022/11/25 03:46:39;;;;;;;14.43;2.83;;;;;;;8.08;92.40;100899.97;4990775;28;20055;-68
2022/11/25 03:49:06;;;;;;;12.02;2.65;;;;;;;8.05;92.77;100902.63;4981560;28;20043;-68
2022/11/25 03:51:34;;;;;;;14.52;2.78;;;;;;;8.03;92.92;100893.94;4985850;28;20050;-68
2022/11/25 03:54:01;;;;;;;13.10;2.60;;;;;;;8.05;93.38;100877.25;4988802;28;20084;-68
2022/11/25 03:56:34;;;;;;;13.57;2.78;;;;;;;8.05;93.81;100873.75;4983904;28;20452;-68
2022/11/25 03:59:01;;;;;;;20.77;2.95;;;;;;;8.05;94.15;100884.25;4989076;28;20049;-68
2022/11/25 04:01:28;;;;;;;12.82;2.55;;;;;;;8.05;94.38;100893.00;5001739;28;20049;-68
2022/11/25 04:03:56;;;;;;;17.15;2.65;;;;;;;8.05;94.70;100890.41;4998609;28;20122;-68
2022/11/25 04:06:23;;;;;;;17.00;2.35;;;;;;;8.06;94.79;100892.13;4989032;28;20047;-69
2022/11/25 04:08:54;;;;;;;16.98;3.15;;;;;;;8.07;94.89;100904.38;4990433;28;20153;-69
2022/11/25 04:11:21;;;;;;;16.45;2.60;;;;;;;8.07;95.17;100911.34;4995236;28;20043;-69
2022/11/25 04:13:54;;;;;;;11.88;2.63;;;;;;;8.09;95.43;100920.06;4988312;28;20520;-69
2022/11/25 04:16:25;;;;;;;14.07;2.72;;;;;;;8.12;95.38;100917.41;4990868;28;20504;-69
2022/11/25 04:18:53;;;;;;;13.13;2.95;;;;;;;8.12;95.28;100932.28;4993069;28;20081;-69
2022/11/25 04:21:20;;;;;;;14.95;2.83;;;;;;;8.13;95.52;100931.38;4997314;28;20050;-69
2022/11/25 04:23:48;;;;;;;17.80;3.03;;;;;;;8.14;95.64;100948.88;4989837;28;20046;-69
2022/11/25 04:26:15;;;;;;;15.93;2.95;;;;;;;8.15;95.63;100950.63;4988425;28;20088;-69
2022/11/25 04:28:44;;;;;;;9.73;2.88;;;;;;;8.15;95.73;100954.09;4991638;28;20467;-69
2022/11/25 04:31:11;;;;;;;13.10;2.35;;;;;;;8.16;95.66;100961.06;4987386;28;20448;-70
2022/11/25 04:33:41;;;;;;;11.77;2.75;;;;;;;8.16;95.68;100975.97;4980718;28;20039;-71
2022/11/25 04:36:09;;;;;;;12.52;2.35;;;;;;;8.15;95.69;100985.59;5021902;28;20123;-71
2022/11/25 04:38:36;;;;;;;18.60;3.20;;;;;;;8.15;95.84;100988.22;4990433;28;20042;-69
2022/11/25 04:41:05;;;;;;;12.68;2.90;;;;;;;8.14;95.85;100981.25;4987576;28;20035;-69
2022/11/25 04:43:37;;;;;;;14.02;2.50;;;;;;;8.13;95.92;100982.16;4989464;28;20603;-69
2022/11/25 04:46:18;;;;;;;14.50;2.83;;;;;;;8.09;95.41;100983.09;4987776;28;20046;-69
2022/11/25 04:48:49;;;;;;;17.98;2.90;;;;;;;8.02;95.36;100989.34;4990845;28;20046;-68
2022/11/25 04:51:16;;;;;;;12.30;2.60;;;;;;;7.98;95.60;100987.66;4982613;28;20062;-69
2022/11/25 04:53:47;;;;;;;14.90;2.55;;;;;;;7.95;95.72;100995.59;4989129;28;20049;-69
2022/11/25 04:56:20;;;;;;;15.57;2.50;;;;;;;7.95;96.12;101004.34;4989420;28;20559;-69
2022/11/25 05:01:39;;;;;;;13.02;2.50;;;;;;;7.96;96.38;101008.72;4988030;28;20524;-69
2022/11/25 05:04:22;;;;;;;9.98;2.30;;;;;;;7.98;96.46;101017.44;4998342;28;20149;-69
2022/11/25 05:06:50;;;;;;;14.20;2.67;;;;;;;8.02;96.51;101007.75;4988614;28;20839;-69
2022/11/25 05:09:18;;;;;;;14.38;2.90;;;;;;;8.03;96.78;101023.44;4989658;28;20115;-69
2022/11/25 05:11:51;;;;;;;10.50;2.50;;;;;;;8.07;97.01;101026.88;4987029;28;20051;-71
2022/11/25 05:14:18;;;;;;;9.60;1.90;;;;;;;8.10;96.91;101024.22;5021314;28;20590;-71
2022/11/25 05:16:45;;;;;;;9.07;2.20;;;;;;;8.13;96.93;101021.56;4987856;28;20047;-69
2022/11/25 05:19:12;;;;;;;14.15;2.35;;;;;;;8.15;97.04;101026.75;4988261;28;20181;-70
2022/11/25 05:21:40;;;;;;;12.95;2.17;;;;;;;8.16;97.13;101031.13;4990912;28;20129;-70
2022/11/25 05:24:07;;;;;;;13.30;2.35;;;;;;;8.18;97.17;101027.56;4990647;28;20527;-69
2022/11/25 05:26:36;;;;;;;9.25;2.05;;;;;;;8.21;97.22;101030.16;4989708;28;20126;-70
2022/11/25 05:29:05;;;;;;;9.75;2.22;;;;;;;8.22;97.46;101031.91;4989014;28;20043;-70
2022/11/25 05:31:33;;;;;;;8.68;2.10;;;;;;;8.24;97.30;101030.09;4989709;28;20043;-71
2022/11/25 05:34:03;;;;;;;10.82;2.40;;;;;;;8.25;97.32;101028.34;4985926;28;20082;-71
2022/11/25 05:36:31;;;;;;;8.88;1.92;;;;;;;8.24;97.34;101024.84;4988250;28;20050;-70
2022/11/25 05:38:59;;;;;;;9.55;1.58;;;;;;;8.25;97.38;101025.72;4982479;28;20050;-70
2022/11/25 05:41:43;;;;;;;6.68;1.52;;;;;;;8.21;97.38;101035.41;4986253;28;20046;-70
2022/11/25 05:44:11;;;;;;;6.82;1.67;;;;;;;8.22;97.28;101026.63;4983969;28;20409;-70
2022/11/25 05:46:39;;;;;;;10.40;2.03;;;;;;;8.26;97.40;101029.19;4990453;28;20074;-69
2022/11/25 05:49:06;;;;;;;6.25;1.63;;;;;;;8.26;97.44;101035.34;4990255;28;20043;-69
2022/11/25 05:51:34;;;;;;;5.90;1.48;;;;;;;8.28;97.19;101037.91;4987647;28;21052;-69
2022/11/25 05:54:03;;;;;;;7.75;1.55;;;;;;;8.32;97.31;101042.25;5003243;28;20039;-69
2022/11/25 05:56:34;;;;;;;11.38;1.67;;;;;;;8.35;97.33;101032.53;4987733;28;20074;-69
2022/11/25 05:59:24;;;;;;;8.68;1.38;;;;;;;8.40;97.42;101038.56;4987318;28;20130;-69
2022/11/25 06:02:02;;;;;;;7.10;1.33;;;;;;;8.45;97.12;101035.84;4985311;28;20089;-69
2022/11/25 06:04:30;;;;;;;7.85;1.50;;;;;;;8.46;96.81;101040.22;4982824;28;20051;-70
2022/11/25 06:06:57;;;;;;;10.23;1.40;;;;;;;8.47;96.34;101046.34;4985271;28;20039;-69
2022/11/25 06:09:25;;;;;;;5.28;1.20;;;;;;;8.42;96.25;101043.81;4989780;28;20130;-70
2022/11/25 06:11:52;;;;;;;9.18;1.40;;;;;;;8.41;96.12;101049.94;4990514;28;20051;-70
2022/11/25 06:14:19;;;;;;;9.13;1.52;;;;;;;8.45;96.22;101048.97;4998130;28;20035;-70
2022/11/25 06:16:49;;;;;;;5.53;1.30;;;;;;;8.45;95.75;101053.38;4986076;28;20129;-70
2022/11/25 06:19:24;;;;;;;6.07;1.42;;;;;;;8.38;95.32;101052.63;4987264;28;20043;-70
2022/11/25 06:21:51;;;;;;;5.97;1.60;;;;;;;8.24;94.91;101056.34;4999457;28;20043;-71
2022/11/25 06:24:18;;;;;;;8.35;1.83;;;;;;;8.07;94.81;101061.03;4991322;28;20063;-71
2022/11/25 06:26:49;;;;;;;6.47;1.50;;;;;;;7.91;94.90;101076.16;4994141;28;20042;-71
2022/11/25 06:29:18;;;;;;;8.52;1.95;;;;;;;7.74;94.92;101071.16;4991015;28;20047;-71
2022/11/25 06:31:49;;;;;;;5.63;1.52;;;;;;;7.61;95.08;101078.34;4999680;28;20038;-71
2022/11/25 06:34:42;;;;;;;9.35;1.85;;;;;;;7.49;95.43;101087.25;4965443;28;20528;-71
2022/11/25 06:37:19;;;;;;;8.27;1.60;;;;;;;7.39;95.67;101083.88;4990919;28;20039;-71
2022/11/25 06:39:46;;;;;;;7.55;1.80;;;;;;;7.31;95.91;101090.97;4988672;28;20053;-71
2022/11/25 06:42:13;;;;;;;6.70;1.80;;;;;;;7.23;95.93;101091.06;4992577;28;20039;-71
2022/11/25 06:44:40;;;;;;;10.32;1.70;;;;;;;7.17;96.17;101088.53;4987429;28;20053;-71
2022/11/25 06:47:07;;;;;;;6.97;2.10;;;;;;;7.12;96.18;101096.47;4991859;28;20062;-71
2022/11/25 06:49:34;;;;;;;6.78;1.70;;;;;;;7.07;96.53;101097.41;4991700;28;20042;-71
2022/11/25 06:52:01;;;;;;;9.15;2.08;;;;;;;7.03;96.65;101100.94;4988257;28;20051;-71
2022/11/25 06:54:29;;;;;;;6.50;2.00;;;;;;;6.98;96.70;101098.38;4994847;28;20042;-71
2022/11/25 06:56:56;;;;;;;11.00;2.10;;;;;;;6.94;96.81;101097.53;4990811;28;20054;-71
2022/11/25 06:59:23;;;;;;;7.90;2.15;;;;;;;6.91;97.03;101107.19;4991481;28;20047;-71
2022/11/25 07:01:50;;;;;;;8.45;2.20;;;;;;;6.89;97.18;101117.69;4989371;28;20046;-71
2022/11/25 07:04:17;;;;;;;8.15;1.95;;;;;;;6.86;97.31;101117.72;4993100;28;20050;-71
2022/11/25 07:06:44;;;;;;;8.88;1.85;;;;;;;6.84;97.39;101120.38;4993279;28;20460;-71
2022/11/25 07:09:11;;;;;;;9.13;2.03;;;;;;;6.81;97.31;101127.41;4987756;28;20448;-71
2022/11/25 07:11:41;;;;;;;9.48;2.20;;;;;;;6.78;97.47;101133.50;4993846;28;20090;-71
2022/11/25 07:14:15;;;;;;;7.13;2.40;;;;;;;6.78;97.52;101143.13;4994865;28;20051;-71
2022/11/25 07:16:45;;;;;;;13.43;4.43;;;;;;;6.74;97.57;101134.44;4997094;28;20441;-71
2022/11/25 07:19:15;;;;;;;10.55;4.25;;;;;;;6.75;97.79;101136.19;4992192;28;20045;-71
2022/11/25 07:21:44;;;;;;;12.57;4.80;;;;;;;6.72;97.76;101133.59;4992867;28;20051;-71
2022/11/25 07:24:15;;;;;;;10.43;3.08;;;;;;;6.71;97.77;101139.72;4983755;28;20040;-71
2022/11/25 07:26:43;;;;;;;9.48;2.60;;;;;;;6.70;97.81;101147.59;4976505;28;20138;-70
2022/11/25 07:29:14;;;;;;;11.68;2.65;;;;;;;6.69;97.88;101149.31;4989429;28;20050;-70
2022/11/25 07:32:01;;;;;;;9.32;2.58;;;;;;;6.65;97.91;101155.50;4991057;28;20642;-71
2022/11/25 07:34:36;;;;;;;9.93;2.50;;;;;;;6.66;97.94;101165.09;4991458;28;20066;-71
2022/11/25 07:37:03;;;;;;;7.78;2.35;;;;;;;6.64;97.99;101166.84;4996728;28;20049;-71
2022/11/25 07:39:30;;;;;;;9.23;2.90;;;;;;;6.63;98.21;101168.59;4992829;28;20043;-71
2022/11/25 07:41:57;;;;;;;10.85;3.10;;;;;;;6.64;98.08;101180.81;4983600;28;20043;-71
2022/11/25 07:44:24;;;;;;;11.52;3.28;;;;;;;6.67;98.14;101180.78;4986524;28;20039;-71
2022/11/25 07:47:16;;;;;;;8.65;2.88;;;;;;;6.69;98.25;101180.75;4991866;28;20069;-71
2022/11/25 07:49:43;;;;;;;11.50;3.60;;;;;;;6.72;97.99;101186.00;4992008;28;20047;-71
2022/11/25 07:52:10;;;;;;;15.27;3.10;;;;;;;6.74;98.30;101192.09;4991500;28;20066;-71
2022/11/25 07:54:37;;;;;;;10.25;2.63;;;;;;;6.78;98.21;101193.78;4992321;28;20095;-71
2022/11/25 07:57:04;;;;;;;11.68;3.17;;;;;;;6.81;98.35;101199.00;4991079;28;20109;-70
2022/11/25 07:59:31;;;;;;;9.00;2.50;;;;;;;6.85;98.38;101205.09;4992159;28;20043;-71
2022/11/25 08:01:58;;;;;;;8.77;2.60;;;;;;;6.89;98.19;101203.31;4991762;28;20150;-71
2022/11/25 08:04:26;;;;;;;11.00;2.65;;;;;;;6.94;98.38;101202.38;4992259;28;20070;-71
2022/11/25 08:06:53;;;;;;;11.80;3.17;;;;;;;7.00;98.36;101209.31;4992077;28;20067;-71
2022/11/25 08:09:22;;;;;;;10.45;2.80;;;;;;;7.05;98.39;101217.13;4992167;28;20042;-70
2022/11/25 08:11:51;;;;;;;14.90;2.70;;;;;;;7.11;98.37;101219.72;4992281;28;20113;-71
2022/11/25 08:14:20;;;;;;;11.82;3.00;;;;;;;7.18;98.61;101221.38;4990681;28;20077;-70
2022/11/25 08:16:48;;;;;;;8.57;2.90;;;;;;;7.26;98.55;101231.81;4990128;28;20516;-70
2022/11/25 08:19:17;;;;;;;7.40;2.10;;;;;;;7.34;98.41;101231.72;4990468;28;20045;-71
2022/11/25 08:21:46;;;;;;;8.63;2.30;;;;;;;7.39;98.48;101229.91;4991637;28;20043;-71
2022/11/25 08:24:19;;;;;;;8.75;2.97;;;;;;;7.45;98.36;101235.97;4991989;28;20515;-71
2022/11/25 08:26:48;;;;;;;6.97;2.80;;;;;;;7.51;98.16;101228.91;4991511;28;20105;-71
2022/11/25 08:29:17;;;;;;;13.98;2.95;;;;;;;7.57;98.40;101237.56;4992025;28;20073;-70
2022/11/25 08:31:46;;;;;;;6.28;2.40;;;;;;;7.61;98.23;101238.41;4991926;28;20069;-71
2022/11/25 08:34:23;;;;;;;10.43;2.92;;;;;;;7.66;98.11;101239.25;4991469;28;20051;-71
2022/11/25 08:36:57;;;;;;;7.85;2.50;;;;;;;7.72;98.10;101248.78;4990000;28;20054;-71
2022/11/25 08:39:24;;;;;;;9.77;2.63;;;;;;;7.78;97.87;101240.84;4991452;28;20079;-71
2022/11/25 08:42:11;;;;;;;10.60;2.80;;;;;;;7.82;97.87;101255.66;4991210;28;20047;-71
2022/11/25 08:44:39;;;;;;;8.57;2.20;;;;;;;7.87;97.59;101253.84;4991210;28;20050;-71
2022/11/25 08:47:06;;;;;;;10.85;2.63;;;;;;;7.93;97.67;101258.16;4991632;28;20047;-71
2022/11/25 08:49:33;;;;;;;12.23;3.08;;;;;;;7.99;97.34;101258.06;4991735;28;20051;-71
2022/11/25 08:52:08;;;;;;;10.77;2.50;;;;;;;8.03;96.98;101259.78;4981299;28;20066;-71
2022/11/25 08:54:35;;;;;;;8.40;2.35;;;;;;;8.08;96.94;101263.22;4992276;28;20405;-72
2022/11/25 08:57:03;;;;;;;10.10;2.40;;;;;;;8.12;96.76;101269.28;4994879;28;20499;-71
2022/11/25 08:59:30;;;;;;;6.75;2.15;;;;;;;8.16;96.68;101267.50;4989418;28;20054;-71
2022/11/25 09:01:57;;;;;;;10.38;2.80;;;;;;;8.19;96.47;101263.06;4991596;28;20042;-72
2022/11/25 09:04:24;;;;;;;14.00;2.50;;;;;;;8.24;96.35;101270.88;4990707;28;20053;-71
2022/11/25 09:06:57;;;;;;;11.73;2.90;;;;;;;8.28;95.94;101264.72;4991047;28;20043;-71
2022/11/25 09:09:25;;;;;;;11.20;2.50;;;;;;;8.33;95.85;101275.16;4990679;28;20039;-71
2022/11/25 09:11:52;;;;;;;8.13;2.58;;;;;;;8.36;95.74;101277.72;4992011;28;20066;-71
2022/11/25 09:14:19;;;;;;;6.07;2.33;;;;;;;8.43;95.48;101283.75;4990787;28;20045;-71
2022/11/25 09:16:46;;;;;;;8.18;2.50;;;;;;;8.46;94.97;101286.34;4991323;28;20166;-71
2022/11/25 09:19:13;;;;;;;6.32;2.20;;;;;;;8.49;94.92;101288.97;4990085;28;20034;-71
2022/11/25 09:21:44;;;;;;;8.52;2.35;;;;;;;8.54;94.97;101289.75;4994295;28;20509;-71
2022/11/25 09:24:11;;;;;;;8.13;2.45;;;;;;;8.61;94.37;101298.41;4987203;28;20047;-72
2022/11/25 09:26:39;;;;;;;7.03;2.03;;;;;;;8.64;94.30;101304.50;4990232;28;20066;-71
2022/11/25 09:29:07;;;;;;;10.57;2.63;;;;;;;8.69;94.40;101309.69;4991572;28;20039;-71
2022/11/25 09:31:34;;;;;;;10.75;2.40;;;;;;;8.74;94.25;101310.50;4991260;28;20046;-71
2022/11/25 09:34:02;;;;;;;10.73;2.10;;;;;;;8.80;94.02;101325.31;4993087;28;20042;-71
2022/11/25 09:36:30;;;;;;;11.80;2.47;;;;;;;8.83;93.96;101318.25;4990452;28;20043;-72
2022/11/25 09:38:57;;;;;;;9.45;2.38;;;;;;;8.90;93.62;101323.41;4990002;28;20402;-71
2022/11/25 09:48:19;;;;;;;7.88;2.40;;;;;;;9.06;93.50;101330.13;4964793;28;20505;-71
2022/11/25 09:51:26;;;;;;;12.35;2.42;;;;;;;9.12;93.10;101337.94;4991915;28;20042;-71
2022/11/25 09:54:02;;;;;;;10.20;2.30;;;;;;;9.15;92.68;101335.28;5008642;28;20134;-71
2022/11/25 09:57:44;;;;;;;6.18;2.33;;;;;;;9.21;92.30;101350.06;5006146;28;20659;-72
2022/11/25 10:00:17;;;;;;;10.35;2.60;;;;;;;9.27;92.20;101352.59;4970394;28;21043;-71
2022/11/25 10:03:03;;;;;;;9.80;2.30;;;;;;;9.32;92.03;101352.53;4971320;28;20043;-72
2022/11/25 10:05:38;;;;;;;8.90;2.38;;;;;;;9.37;91.58;101358.56;4984728;28;20428;-72
2022/11/25 10:08:19;;;;;;;8.52;2.03;;;;;;;9.42;91.60;101350.59;4993688;28;20044;-72
2022/11/25 10:11:26;;;;;;;7.30;2.20;;;;;;;9.47;90.80;101357.50;4994320;28;20082;-71
2022/11/25 10:14:07;;;;;;;7.30;2.35;;;;;;;9.55;91.20;101359.16;4958376;28;20101;-71
2022/11/25 10:16:48;;;;;;;7.10;1.90;;;;;;;9.60;90.96;101360.81;4994261;28;20047;-72
2022/11/25 10:19:59;;;;;;;5.78;1.90;;;;;;;9.64;90.63;101367.75;4993217;28;20043;-72
2022/11/25 10:22:35;;;;;;;6.90;1.98;;;;;;;9.70;89.96;101365.91;4994039;28;20139;-71
2022/11/25 10:25:19;;;;;;;7.38;1.75;;;;;;;9.77;88.81;101370.16;4994487;28;20106;-72
2022/11/25 10:27:57;;;;;;;8.07;1.77;;;;;;;9.81;88.26;101382.38;4993224;28;20043;-71
2022/11/25 10:30:43;;;;;;;7.90;1.90;;;;;;;9.84;88.63;101379.69;4994227;28;20050;-72
2022/11/25 10:33:25;;;;;;;9.57;2.20;;;;;;;9.87;89.14;101374.38;4994379;28;20042;-72
2022/11/25 10:36:17;;;;;;;5.97;1.88;;;;;;;9.95;88.88;101384.75;4993971;28;20121;-71
2022/11/25 10:39:04;;;;;;;10.10;2.20;;;;;;;10.00;88.51;101382.03;4994030;28;20038;-71
2022/11/25 10:41:58;;;;;;;4.75;1.92;;;;;;;10.05;88.88;101390.72;4993715;28;20043;-71
2022/11/25 10:44:31;;;;;;;13.18;3.00;;;;;;;10.09;89.06;101390.63;4989251;28;20070;-72
2022/11/25 10:47:20;;;;;;;8.82;2.85;;;;;;;10.17;87.65;101392.25;4993305;28;20094;-72
2022/11/25 10:50:00;;;;;;;6.88;2.75;;;;;;;10.21;87.88;101399.19;4994163;28;20121;-71
2022/11/25 10:52:33;;;;;;;8.00;2.13;;;;;;;10.26;88.17;101398.19;4992238;28;20767;-72
2022/11/25 10:55:59;;;;;;;10.52;2.40;;;;;;;10.34;87.59;101408.59;4993231;28;20072;-72
2022/11/25 10:58:32;;;;;;;6.60;2.05;;;;;;;10.39;87.30;101409.38;4932183;28;20123;-72
2022/11/25 11:01:21;;;;;;;8.43;2.20;;;;;;;10.46;87.13;101414.53;4933076;29;20055;-71
2022/11/25 11:04:04;;;;;;;8.18;2.20;;;;;;;10.49;85.93;101417.97;4981807;28;20054;-72
2022/11/25 11:06:38;;;;;;;10.57;2.67;;;;;;;10.51;85.76;101412.66;4992691;28;20532;-72
2022/11/25 11:09:25;;;;;;;9.32;2.20;;;;;;;10.57;85.92;101418.69;4993383;28;20108;-72
2022/11/25 11:11:52;;;;;;;10.32;1.95;;;;;;;10.63;85.80;101419.47;4993223;28;20476;-72
2022/11/25 11:14:20;;;;;;;6.38;1.90;;;;;;;10.66;85.97;101422.00;4993678;28;20070;-72
2022/11/25 11:16:54;;;;;;;11.27;2.17;;;;;;;10.70;84.98;101426.34;4992261;28;20058;-72
2022/11/25 11:19:29;;;;;;;20.80;3.40;;;;;;;10.74;85.23;101429.78;4992260;28;20063;-72
2022/11/25 11:22:16;;;;;;;10.93;2.13;;;;;;;10.78;85.14;101439.38;4993272;28;20043;-72
2022/11/25 11:24:43;;;;;;;7.72;1.67;;;;;;;10.81;85.49;101436.63;4993451;28;20602;-72
2022/11/25 11:27:23;;;;;;;15.13;2.47;;;;;;;10.87;85.29;101441.81;4999096;28;20034;-72
2022/11/25 11:30:19;;;;;;;11.05;2.00;;;;;;;10.94;85.26;101445.16;5012074;28;20527;-72
2022/11/25 11:33:26;;;;;;;7.85;1.73;;;;;;;11.00;84.68;101445.88;5006010;28;20039;-72
2022/11/25 11:36:26;;;;;;;90.53;40.53;;;;;;;11.07;84.93;101451.91;5000561;28;20084;-72
2022/11/25 11:39:10;;;;;;;8.65;4.20;;;;;;;11.12;84.68;101446.50;4998350;28;20047;-72
2022/11/25 11:42:03;;;;;;;8.32;1.83;;;;;;;11.15;83.50;101452.56;4982338;28;20527;-72
2022/11/25 11:44:58;;;;;;;9.38;2.95;;;;;;;11.23;83.66;101454.19;4965653;28;20467;-72
2022/11/25 11:48:10;;;;;;;14.75;6.13;;;;;;;11.30;83.15;101453.13;4992672;28;20047;-72
2022/11/25 11:50:46;;;;;;;6.00;1.73;;;;;;;11.36;82.95;101465.31;4992805;28;20497;-72
2022/11/25 11:53:34;;;;;;;11.00;2.22;;;;;;;11.41;82.42;101463.44;4991742;28;20077;-72
2022/11/25 11:56:28;;;;;;;8.85;3.35;;;;;;;11.43;82.55;101462.50;4992747;28;20457;-72
2022/11/25 11:59:35;;;;;;;10.00;5.60;;;;;;;11.49;82.37;101465.00;4992407;28;20038;-72
2022/11/25 12:02:18;;;;;;;13.82;4.28;;;;;;;11.53;81.75;101471.06;4992503;28;20051;-72
2022/11/25 12:05:03;;;;;;;10.77;2.97;;;;;;;11.57;81.79;101478.03;4991873;28;20038;-72
2022/11/25 12:07:39;;;;;;;10.73;3.17;;;;;;;11.67;81.77;101477.78;4992749;28;20043;-72
2022/11/25 12:10:50;;;;;;;16.80;10.45;;;;;;;11.75;81.08;101481.97;4992453;28;20069;-72